createdAt,value
2023-05-21T00:01:21.787Z,65
2023-05-21T00:03:01.547Z,65
2023-05-21T00:04:41.330Z,65
2023-05-21T00:06:21.088Z,65
2023-05-21T00:08:00.845Z,65
2023-05-21T00:09:40.609Z,65
2023-05-21T00:11:20.376Z,65
2023-05-21T00:13:00.152Z,65
2023-05-21T00:14:39.903Z,65
2023-05-21T00:16:19.650Z,64
2023-05-21T00:17:59.415Z,65
2023-05-21T00:19:39.198Z,65
2023-05-21T00:21:18.977Z,65
2023-05-21T00:22:58.723Z,65
2023-05-21T00:24:38.482Z,65
2023-05-21T00:26:18.241Z,65
2023-05-21T00:27:58.020Z,64
2023-05-21T00:29:37.769Z,65
2023-05-21T00:31:17.534Z,65
2023-05-21T00:32:57.299Z,64
2023-05-21T00:34:37.064Z,64
2023-05-21T00:36:16.847Z,64
2023-05-21T00:37:56.594Z,64
2023-05-21T00:39:36.345Z,64
2023-05-21T00:41:16.112Z,64
2023-05-21T00:42:55.882Z,64
2023-05-21T00:44:35.653Z,64
2023-05-21T00:46:15.408Z,64
2023-05-21T00:47:55.190Z,64
2023-05-21T00:49:34.950Z,64
2023-05-21T00:51:14.720Z,64
2023-05-21T00:52:54.469Z,64
2023-05-21T00:54:34.218Z,64
2023-05-21T00:56:14.135Z,64
2023-05-21T00:57:53.896Z,64
2023-05-21T00:59:33.667Z,64
2023-05-21T01:01:13.413Z,64
2023-05-21T01:02:53.185Z,63
2023-05-21T01:04:32.948Z,63
2023-05-21T01:06:12.702Z,63
2023-05-21T01:07:52.492Z,63
2023-05-21T01:09:32.241Z,63
2023-05-21T01:11:12.055Z,63
2023-05-21T01:12:51.795Z,63
2023-05-21T01:14:31.554Z,63
2023-05-21T01:16:11.291Z,63
2023-05-21T01:17:51.108Z,63
2023-05-21T01:19:30.846Z,63
2023-05-21T01:21:10.584Z,63
2023-05-21T01:22:50.351Z,63
2023-05-21T01:24:30.121Z,63
2023-05-21T01:26:09.873Z,63
2023-05-21T01:27:49.638Z,63
2023-05-21T01:29:29.409Z,63
2023-05-21T01:31:09.174Z,63
2023-05-21T01:32:48.936Z,62
2023-05-21T01:34:28.694Z,63
2023-05-21T01:36:08.456Z,63
2023-05-21T01:37:48.233Z,63
2023-05-21T01:39:28.004Z,63
2023-05-21T01:41:07.759Z,63
2023-05-21T01:42:47.532Z,63
2023-05-21T01:44:27.297Z,63
2023-05-21T01:46:07.058Z,63
2023-05-21T01:47:46.818Z,63
2023-05-21T01:49:26.597Z,62
2023-05-21T01:51:06.351Z,62
2023-05-21T01:52:46.096Z,62
2023-05-21T01:54:25.874Z,62
2023-05-21T01:56:05.622Z,62
2023-05-21T01:57:45.503Z,62
2023-05-21T01:59:25.268Z,62
2023-05-21T02:01:05.037Z,62
2023-05-21T02:02:44.802Z,62
2023-05-21T02:04:24.570Z,62
2023-05-21T02:06:04.342Z,62
2023-05-21T02:07:44.094Z,62
2023-05-21T02:09:23.857Z,62
2023-05-21T02:11:03.622Z,62
2023-05-21T02:12:43.389Z,61
2023-05-21T02:14:23.141Z,61
2023-05-21T02:16:02.922Z,62
2023-05-21T02:17:42.692Z,62
2023-05-21T02:19:22.459Z,62
2023-05-21T02:21:02.206Z,61
2023-05-21T02:22:41.967Z,61
2023-05-21T02:24:21.754Z,61
2023-05-21T02:26:01.498Z,61
2023-05-21T02:27:41.262Z,61
2023-05-21T02:29:21.042Z,61
2023-05-21T02:31:00.800Z,61
2023-05-21T02:32:40.551Z,61
2023-05-21T02:34:20.326Z,61
2023-05-21T02:36:00.083Z,61
2023-05-21T02:37:39.851Z,62
2023-05-21T02:39:19.617Z,61
2023-05-21T02:40:59.390Z,61
2023-05-21T02:42:39.133Z,61
2023-05-21T02:44:18.922Z,61
2023-05-21T02:45:58.659Z,61
2023-05-21T02:47:38.431Z,61
2023-05-21T02:49:18.217Z,61
2023-05-21T02:50:57.962Z,61
2023-05-21T02:52:37.830Z,61
2023-05-21T02:54:17.599Z,61
2023-05-21T02:55:57.363Z,61
2023-05-21T02:57:37.135Z,61
2023-05-21T02:59:16.900Z,61
2023-05-21T03:00:56.656Z,61
2023-05-21T03:02:36.409Z,61
2023-05-21T03:04:16.180Z,61
2023-05-21T03:05:55.952Z,61
2023-05-21T03:07:35.719Z,61
2023-05-21T03:09:15.488Z,61
2023-05-21T03:10:55.240Z,61
2023-05-21T03:12:35.005Z,61
2023-05-21T03:14:14.766Z,61
2023-05-21T03:15:54.523Z,62
2023-05-21T03:17:34.285Z,62
2023-05-21T03:19:14.046Z,62
2023-05-21T03:20:53.827Z,61
2023-05-21T03:22:33.592Z,62
2023-05-21T03:24:13.354Z,62
2023-05-21T03:25:53.112Z,62
2023-05-21T03:27:32.875Z,63
2023-05-21T03:29:12.656Z,62
2023-05-21T03:30:52.410Z,62
2023-05-21T03:32:32.181Z,62
2023-05-21T03:34:11.949Z,63
2023-05-21T03:35:51.699Z,64
2023-05-21T03:37:31.577Z,64
2023-05-21T03:39:11.358Z,65
2023-05-21T03:40:51.103Z,65
2023-05-21T03:42:30.870Z,66
2023-05-21T03:44:10.625Z,66
2023-05-21T03:45:50.388Z,67
2023-05-21T03:47:30.167Z,67
2023-05-21T03:49:09.926Z,68
2023-05-21T03:50:49.685Z,69
2023-05-21T03:52:29.462Z,70
2023-05-21T03:54:09.242Z,71
2023-05-21T03:55:48.972Z,72
2023-05-21T03:57:28.753Z,73
2023-05-21T03:59:08.521Z,75
2023-05-21T04:00:48.270Z,76
2023-05-21T04:02:28.037Z,77
2023-05-21T04:04:07.804Z,79
2023-05-21T04:05:47.670Z,81
2023-05-21T04:07:27.438Z,83
2023-05-21T04:09:07.207Z,84
2023-05-21T04:10:46.973Z,86
2023-05-21T04:12:26.729Z,88
2023-05-21T04:14:06.498Z,90
2023-05-21T04:15:46.261Z,92
2023-05-21T04:17:26.034Z,95
2023-05-21T04:19:05.805Z,97
2023-05-21T04:20:45.543Z,100
2023-05-21T04:22:25.333Z,100
2023-05-21T04:24:05.089Z,100
2023-05-21T04:25:44.847Z,100
2023-05-21T04:27:24.616Z,100
2023-05-21T04:29:04.363Z,100
2023-05-21T04:30:44.135Z,100
2023-05-21T04:32:23.893Z,100
2023-05-21T04:34:03.723Z,100
2023-05-21T04:35:43.479Z,100
2023-05-21T04:37:23.250Z,100
2023-05-21T04:39:03.065Z,100
2023-05-21T04:40:42.773Z,100
2023-05-21T04:42:22.561Z,100
2023-05-21T04:44:02.302Z,100
2023-05-21T04:45:42.060Z,100
2023-05-21T04:47:21.831Z,100
2023-05-21T04:49:01.746Z,100
2023-05-21T04:50:41.478Z,100
2023-05-21T04:52:21.248Z,100
2023-05-21T04:54:01.008Z,100
2023-05-21T04:55:40.784Z,100
2023-05-21T04:57:20.548Z,100
2023-05-21T04:59:00.335Z,100
2023-05-21T05:00:40.102Z,100
2023-05-21T05:02:19.831Z,100
2023-05-21T05:03:59.605Z,100
2023-05-21T05:05:39.363Z,100
2023-05-21T05:07:19.141Z,100
2023-05-21T05:08:58.914Z,100
2023-05-21T05:10:38.672Z,100
2023-05-21T05:12:18.417Z,100
2023-05-21T05:13:58.190Z,100
2023-05-21T05:15:37.948Z,100
2023-05-21T05:17:17.712Z,100
2023-05-21T05:18:57.479Z,100
2023-05-21T05:20:37.269Z,100
2023-05-21T05:22:17.011Z,100
2023-05-21T05:23:56.890Z,100
2023-05-21T05:25:36.651Z,100
2023-05-21T05:27:16.421Z,100
2023-05-21T05:28:56.173Z,100
2023-05-21T05:30:35.940Z,100
2023-05-21T05:32:15.712Z,100
2023-05-21T05:33:55.472Z,100
2023-05-21T05:35:35.227Z,100
2023-05-21T05:37:14.996Z,100
2023-05-21T05:38:54.767Z,100
2023-05-21T05:40:34.532Z,100
2023-05-21T05:42:14.293Z,100
2023-05-21T05:43:54.065Z,100
2023-05-21T05:45:33.815Z,100
2023-05-21T05:47:13.568Z,100
2023-05-21T05:48:53.347Z,100
2023-05-21T05:50:33.115Z,100
2023-05-21T05:52:12.875Z,100
2023-05-21T05:53:52.641Z,100
2023-05-21T05:55:32.413Z,100
2023-05-21T05:57:12.164Z,100
2023-05-21T05:58:51.936Z,100
2023-05-21T06:00:31.716Z,100
2023-05-21T06:02:11.458Z,100
2023-05-21T06:03:51.212Z,100
2023-05-21T06:05:30.976Z,100
2023-05-21T06:07:10.749Z,100
2023-05-21T06:08:50.525Z,100
2023-05-21T06:10:30.283Z,100
2023-05-21T06:12:10.050Z,100
2023-05-21T06:13:49.816Z,100
2023-05-21T06:15:29.560Z,100
2023-05-21T06:17:09.322Z,100
2023-05-21T06:18:49.123Z,100
2023-05-21T06:20:28.872Z,100
2023-05-21T06:22:08.630Z,100
2023-05-21T06:23:48.388Z,100
2023-05-21T06:25:28.145Z,100
2023-05-21T06:27:07.924Z,100
2023-05-21T06:28:47.692Z,100
2023-05-21T06:30:27.444Z,100
2023-05-21T06:32:07.211Z,100
2023-05-21T06:33:46.974Z,100
2023-05-21T06:35:26.728Z,100
2023-05-21T06:37:06.517Z,100
2023-05-21T06:38:46.269Z,100
2023-05-21T06:40:26.023Z,100
2023-05-21T06:42:05.802Z,100
2023-05-21T06:43:45.557Z,100
2023-05-21T06:45:25.335Z,100
2023-05-21T06:47:05.097Z,100
2023-05-21T06:48:44.851Z,100
2023-05-21T06:50:24.598Z,100
2023-05-21T06:52:04.368Z,100
2023-05-21T06:53:44.137Z,100
2023-05-21T06:55:23.919Z,100
2023-05-21T06:57:03.648Z,100
2023-05-21T06:58:43.426Z,100
2023-05-21T07:00:23.199Z,100
2023-05-21T07:02:02.968Z,100
2023-05-21T07:03:42.746Z,100
2023-05-21T07:05:22.487Z,100
2023-05-21T07:07:02.246Z,100
2023-05-21T07:08:42.021Z,100
2023-05-21T07:10:21.781Z,100
2023-05-21T07:12:01.530Z,100
2023-05-21T07:13:41.296Z,100
2023-05-21T07:15:21.067Z,97
2023-05-21T07:17:00.857Z,96
2023-05-21T07:18:40.595Z,98
2023-05-21T07:20:20.356Z,100
2023-05-21T07:22:00.135Z,100
2023-05-21T07:23:39.879Z,100
2023-05-21T07:25:19.648Z,100
2023-05-21T07:26:59.426Z,100
2023-05-21T07:28:39.187Z,100
2023-05-21T07:30:18.950Z,100
2023-05-21T07:31:58.718Z,100
2023-05-21T07:33:38.484Z,100
2023-05-21T07:35:18.230Z,100
2023-05-21T07:36:58.013Z,100
2023-05-21T07:38:37.761Z,100
2023-05-21T07:40:17.520Z,100
2023-05-21T07:41:57.299Z,100
2023-05-21T07:43:37.064Z,100
2023-05-21T07:45:16.838Z,100
2023-05-21T07:46:56.567Z,100
2023-05-21T07:48:36.353Z,100
2023-05-21T07:50:16.108Z,100
2023-05-21T07:51:55.873Z,100
2023-05-21T07:53:35.651Z,100
2023-05-21T07:55:15.413Z,100
2023-05-21T07:56:55.180Z,100
2023-05-21T07:58:34.945Z,100
2023-05-21T08:00:14.715Z,100
2023-05-21T08:01:54.466Z,100
2023-05-21T08:03:34.247Z,100
2023-05-21T08:05:13.998Z,100
2023-05-21T08:06:53.765Z,100
2023-05-21T08:08:33.529Z,100
2023-05-21T08:10:13.285Z,100
2023-05-21T08:11:53.043Z,100
2023-05-21T08:13:32.852Z,100
2023-05-21T08:15:12.577Z,100
2023-05-21T08:16:52.350Z,100
2023-05-21T08:18:32.103Z,100
2023-05-21T08:20:11.874Z,100
2023-05-21T08:21:51.651Z,100
2023-05-21T08:23:31.392Z,100
2023-05-21T08:25:11.179Z,100
2023-05-21T08:26:50.954Z,100
2023-05-21T08:28:30.697Z,100
2023-05-21T08:30:10.465Z,100
2023-05-21T08:31:50.212Z,100
2023-05-21T08:33:29.972Z,100
2023-05-21T08:35:09.756Z,100
2023-05-21T08:36:49.503Z,99
2023-05-21T08:38:29.270Z,100
2023-05-21T08:40:09.040Z,100
2023-05-21T08:41:48.807Z,100
2023-05-21T08:43:28.600Z,100
2023-05-21T08:45:08.335Z,100
2023-05-21T08:46:48.099Z,100
2023-05-21T08:48:27.870Z,100
2023-05-21T08:50:07.644Z,100
2023-05-21T08:51:47.388Z,100
2023-05-21T08:53:27.154Z,100
2023-05-21T08:55:06.931Z,100
2023-05-21T08:56:46.676Z,99
2023-05-21T08:58:26.492Z,98
2023-05-21T09:00:06.213Z,98
2023-05-21T09:01:45.983Z,98
2023-05-21T09:03:25.751Z,98
2023-05-21T09:05:05.536Z,99
2023-05-21T09:06:45.269Z,99
2023-05-21T09:08:25.037Z,98
2023-05-21T09:10:04.808Z,99
2023-05-21T09:11:44.579Z,98
2023-05-21T09:13:24.333Z,99
2023-05-21T09:15:04.084Z,100
2023-05-21T09:16:43.855Z,100
2023-05-21T09:18:23.605Z,100
2023-05-21T09:20:03.376Z,100
2023-05-21T09:21:43.322Z,98
2023-05-21T09:23:22.963Z,100
2023-05-21T09:25:02.707Z,99
2023-05-21T09:26:42.606Z,100
2023-05-21T09:28:22.260Z,100
2023-05-21T09:30:01.975Z,100
2023-05-21T09:31:41.738Z,100
2023-05-21T09:33:21.704Z,100
2023-05-21T09:35:01.402Z,99
2023-05-21T09:36:41.089Z,99
2023-05-21T09:38:20.963Z,99
2023-05-21T09:40:00.678Z,99
2023-05-21T09:41:40.341Z,98
2023-05-21T09:43:20.106Z,98
2023-05-21T09:44:59.854Z,100
2023-05-21T09:46:39.609Z,99
2023-05-21T09:48:19.383Z,98
2023-05-21T09:49:59.146Z,100
2023-05-21T09:51:38.901Z,98
2023-05-21T09:53:18.682Z,99
2023-05-21T09:54:58.448Z,99
2023-05-21T09:56:38.276Z,98
2023-05-21T09:58:18.012Z,98
2023-05-21T09:59:57.721Z,99
2023-05-21T10:01:37.492Z,100
2023-05-21T10:03:17.259Z,100
2023-05-21T10:04:57.022Z,100
2023-05-21T10:06:36.793Z,100
2023-05-21T10:08:16.550Z,99
2023-05-21T10:09:56.317Z,99
2023-05-21T10:11:36.134Z,98
2023-05-21T10:13:15.959Z,98
2023-05-21T10:14:55.636Z,98
2023-05-21T10:16:35.390Z,99
2023-05-21T10:18:15.184Z,99
2023-05-21T10:19:54.899Z,100
2023-05-21T10:21:34.654Z,100
2023-05-21T10:23:14.436Z,100
2023-05-21T10:24:54.203Z,100
2023-05-21T10:26:33.965Z,100
2023-05-21T10:28:13.718Z,100
2023-05-21T10:29:53.490Z,100
2023-05-21T10:31:33.436Z,100
2023-05-21T10:33:13.099Z,100
2023-05-21T10:34:53.042Z,100
2023-05-21T10:36:32.693Z,100
2023-05-21T10:38:12.431Z,100
2023-05-21T10:39:52.106Z,99
2023-05-21T10:41:31.891Z,99
2023-05-21T10:43:11.603Z,100
2023-05-21T10:44:51.396Z,98
2023-05-21T10:46:31.157Z,99
2023-05-21T10:48:10.911Z,98
2023-05-21T10:49:50.681Z,98
2023-05-21T10:51:30.491Z,98
2023-05-21T10:53:10.169Z,99
2023-05-21T10:54:49.936Z,100
2023-05-21T10:56:29.731Z,100
2023-05-21T10:58:09.537Z,100
2023-05-21T10:59:49.257Z,99
2023-05-21T11:01:28.996Z,100
2023-05-21T11:03:08.774Z,100
2023-05-21T11:04:48.578Z,100
2023-05-21T11:06:28.356Z,100
2023-05-21T11:08:08.062Z,99
2023-05-21T11:09:47.881Z,100
2023-05-21T11:11:27.603Z,100
2023-05-21T11:13:07.377Z,99
2023-05-21T11:14:47.135Z,99
2023-05-21T11:16:26.903Z,99
2023-05-21T11:18:06.647Z,97
2023-05-21T11:19:46.430Z,98
2023-05-21T11:21:26.329Z,98
2023-05-21T11:23:05.970Z,98
2023-05-21T11:24:45.765Z,98
2023-05-21T11:26:25.481Z,98
2023-05-21T11:28:05.249Z,98
2023-05-21T11:29:45.002Z,98
2023-05-21T11:31:24.756Z,98
2023-05-21T11:33:04.522Z,98
2023-05-21T11:34:44.302Z,98
2023-05-21T11:36:24.076Z,99
2023-05-21T11:38:03.823Z,99
2023-05-21T11:39:43.604Z,100
2023-05-21T11:41:23.349Z,99
2023-05-21T11:43:03.151Z,99
2023-05-21T11:44:42.903Z,99
2023-05-21T11:46:22.711Z,99
2023-05-21T11:48:02.415Z,99
2023-05-21T11:49:42.174Z,98
2023-05-21T11:51:21.953Z,96
2023-05-21T11:53:01.719Z,100
2023-05-21T11:54:41.470Z,99
2023-05-21T11:56:21.228Z,100
2023-05-21T11:58:01.061Z,99
2023-05-21T11:59:40.768Z,100
2023-05-21T12:01:20.532Z,98
2023-05-21T12:03:00.307Z,98
2023-05-21T12:04:40.077Z,98
2023-05-21T12:06:19.838Z,98
2023-05-21T12:07:59.595Z,99
2023-05-21T12:09:39.363Z,99
2023-05-21T12:11:19.123Z,98
2023-05-21T12:12:58.887Z,98
2023-05-21T12:14:38.648Z,98
2023-05-21T12:16:18.421Z,97
2023-05-21T12:17:58.187Z,97
2023-05-21T12:19:37.933Z,97
2023-05-21T12:21:17.715Z,100
2023-05-21T12:22:57.480Z,98
2023-05-21T12:24:37.235Z,96
2023-05-21T12:26:16.993Z,98
2023-05-21T12:27:56.747Z,98
2023-05-21T12:29:36.527Z,99
2023-05-21T12:31:16.393Z,99
2023-05-21T12:32:56.056Z,100
2023-05-21T12:34:35.820Z,100
2023-05-21T12:36:15.572Z,98
2023-05-21T12:37:55.333Z,99
2023-05-21T12:39:35.099Z,99
2023-05-21T12:41:14.867Z,100
2023-05-21T12:42:54.634Z,99
2023-05-21T12:44:34.399Z,100
2023-05-21T12:46:14.180Z,99
2023-05-21T12:47:53.932Z,98
2023-05-21T12:49:33.693Z,97
2023-05-21T12:51:13.515Z,98
2023-05-21T12:52:53.229Z,98
2023-05-21T12:54:32.994Z,99
2023-05-21T12:56:12.747Z,100
2023-05-21T12:57:52.511Z,100
2023-05-21T12:59:32.291Z,100
2023-05-21T13:01:12.056Z,99
2023-05-21T13:02:51.807Z,99
2023-05-21T13:04:31.592Z,99
2023-05-21T13:06:11.348Z,99
2023-05-21T13:07:51.119Z,100
2023-05-21T13:09:30.867Z,99
2023-05-21T13:11:10.633Z,99
2023-05-21T13:12:50.402Z,98
2023-05-21T13:14:30.164Z,97
2023-05-21T13:16:09.926Z,99
2023-05-21T13:17:49.679Z,99
2023-05-21T13:19:29.473Z,100
2023-05-21T13:21:09.224Z,100
2023-05-21T13:22:48.979Z,100
2023-05-21T13:24:28.748Z,98
2023-05-21T13:26:08.511Z,98
2023-05-21T13:27:48.283Z,98
2023-05-21T13:29:28.035Z,98
2023-05-21T13:31:07.804Z,99
2023-05-21T13:32:47.557Z,100
2023-05-21T13:34:27.335Z,100
2023-05-21T13:36:07.094Z,97
2023-05-21T13:37:46.854Z,99
2023-05-21T13:39:26.623Z,99
2023-05-21T13:41:06.405Z,96
2023-05-21T13:42:46.182Z,98
2023-05-21T13:44:25.920Z,99
2023-05-21T13:46:05.698Z,98
2023-05-21T13:47:45.455Z,97
2023-05-21T13:49:25.218Z,99
2023-05-21T13:51:04.977Z,97
2023-05-21T13:52:44.736Z,100
2023-05-21T13:54:24.540Z,98
2023-05-21T13:56:04.316Z,96
2023-05-21T13:57:44.035Z,98
2023-05-21T13:59:23.784Z,98
2023-05-21T14:01:03.568Z,100
2023-05-21T14:02:43.328Z,97
2023-05-21T14:04:23.153Z,96
2023-05-21T14:06:02.866Z,100
2023-05-21T14:07:42.631Z,98
2023-05-21T14:09:22.382Z,98
2023-05-21T14:11:02.160Z,97
2023-05-21T14:12:41.934Z,98
2023-05-21T14:14:21.681Z,98
2023-05-21T14:16:01.467Z,98
2023-05-21T14:17:41.197Z,96
2023-05-21T14:19:20.972Z,96
2023-05-21T14:21:00.734Z,98
2023-05-21T14:22:40.505Z,100
2023-05-21T14:24:20.278Z,99
2023-05-21T14:26:00.041Z,99
2023-05-21T14:27:39.807Z,99
2023-05-21T14:29:19.556Z,99
2023-05-21T14:30:59.333Z,99
2023-05-21T14:32:39.087Z,100
2023-05-21T14:34:18.843Z,98
2023-05-21T14:35:58.609Z,98
2023-05-21T14:37:38.383Z,98
2023-05-21T14:39:18.157Z,98
2023-05-21T14:40:57.896Z,98
2023-05-21T14:42:37.686Z,98
2023-05-21T14:44:17.432Z,98
2023-05-21T14:45:57.203Z,99
2023-05-21T14:47:36.961Z,100
2023-05-21T14:49:16.734Z,98
2023-05-21T14:50:56.495Z,99
2023-05-21T14:52:36.258Z,99
2023-05-21T14:54:16.033Z,99
2023-05-21T14:55:55.792Z,100
2023-05-21T14:57:35.544Z,100
2023-05-21T14:59:15.309Z,98
2023-05-21T15:00:55.077Z,97
2023-05-21T15:02:34.840Z,97
2023-05-21T15:04:14.604Z,97
2023-05-21T15:05:54.369Z,98
2023-05-21T15:07:34.121Z,98
2023-05-21T15:09:13.934Z,98
2023-05-21T15:10:53.654Z,100
2023-05-21T15:12:33.429Z,99
2023-05-21T15:14:13.177Z,99
2023-05-21T15:15:52.964Z,98
2023-05-21T15:17:32.757Z,97
2023-05-21T15:19:12.492Z,96
2023-05-21T15:20:52.356Z,100
2023-05-21T15:22:32.004Z,98
2023-05-21T15:24:11.992Z,96
2023-05-21T15:25:51.592Z,99
2023-05-21T15:27:31.310Z,99
2023-05-21T15:29:11.088Z,98
2023-05-21T15:30:50.898Z,97
2023-05-21T15:32:30.599Z,98
2023-05-21T15:34:10.368Z,98
2023-05-21T15:35:50.122Z,98
2023-05-21T15:37:29.902Z,98
2023-05-21T15:39:09.652Z,97
2023-05-21T15:40:49.417Z,98
2023-05-21T15:42:29.192Z,98
2023-05-21T15:44:08.940Z,98
2023-05-21T15:45:48.710Z,97
2023-05-21T15:47:28.483Z,98
2023-05-21T15:49:08.238Z,98
2023-05-21T15:50:48.003Z,99
2023-05-21T15:52:27.762Z,98
2023-05-21T15:54:07.557Z,97
2023-05-21T15:55:47.296Z,98
2023-05-21T15:57:27.064Z,97
2023-05-21T15:59:06.822Z,97
2023-05-21T16:00:46.637Z,100
2023-05-21T16:02:26.361Z,97
2023-05-21T16:04:06.112Z,98
2023-05-21T16:05:45.873Z,97
2023-05-21T16:07:25.671Z,96
2023-05-21T16:09:05.409Z,99
2023-05-21T16:10:45.170Z,98
2023-05-21T16:12:24.965Z,98
2023-05-21T16:14:04.704Z,99
2023-05-21T16:15:44.493Z,99
2023-05-21T16:17:24.257Z,99
2023-05-21T16:19:04.007Z,97
2023-05-21T16:20:43.779Z,99
2023-05-21T16:22:23.525Z,96
2023-05-21T16:24:03.313Z,99
2023-05-21T16:25:43.064Z,99
2023-05-21T16:27:22.822Z,98
2023-05-21T16:29:02.588Z,97
2023-05-21T16:30:42.356Z,100
2023-05-21T16:32:22.117Z,98
2023-05-21T16:34:01.896Z,99
2023-05-21T16:35:41.649Z,99
2023-05-21T16:37:21.415Z,98
2023-05-21T16:39:01.177Z,98
2023-05-21T16:40:40.930Z,98
2023-05-21T16:42:20.704Z,98
2023-05-21T16:44:00.473Z,99
2023-05-21T16:45:40.304Z,99
2023-05-21T16:47:20.012Z,98
2023-05-21T16:48:59.776Z,99
2023-05-21T16:50:39.516Z,98
2023-05-21T16:52:19.289Z,97
2023-05-21T16:53:59.058Z,98
2023-05-21T16:55:38.833Z,96
2023-05-21T16:57:18.583Z,96
2023-05-21T16:58:58.349Z,98
2023-05-21T17:00:38.125Z,99
2023-05-21T17:02:17.875Z,99
2023-05-21T17:03:57.636Z,98
2023-05-21T17:05:37.416Z,97
2023-05-21T17:07:17.176Z,96
2023-05-21T17:08:56.939Z,100
2023-05-21T17:10:36.707Z,97
2023-05-21T17:12:16.486Z,97
2023-05-21T17:13:56.223Z,97
2023-05-21T17:15:35.999Z,100
2023-05-21T17:17:15.777Z,97
2023-05-21T17:18:55.521Z,99
2023-05-21T17:20:35.306Z,98
2023-05-21T17:22:15.042Z,100
2023-05-21T17:23:54.857Z,97
2023-05-21T17:25:34.588Z,100
2023-05-21T17:27:14.345Z,97
2023-05-21T17:28:54.105Z,97
2023-05-21T17:30:33.888Z,100
2023-05-21T17:32:13.649Z,98
2023-05-21T17:33:53.403Z,99
2023-05-21T17:35:33.197Z,100
2023-05-21T17:37:12.952Z,98
2023-05-21T17:38:52.692Z,97
2023-05-21T17:40:32.488Z,97
2023-05-21T17:42:12.215Z,98
2023-05-21T17:43:51.988Z,99
2023-05-21T17:45:31.737Z,98
2023-05-21T17:47:11.512Z,97
2023-05-21T17:48:51.288Z,99
2023-05-21T17:50:31.023Z,97
2023-05-21T17:52:10.800Z,99
2023-05-21T17:53:50.580Z,97
2023-05-21T17:55:30.352Z,97
2023-05-21T17:57:10.127Z,97
2023-05-21T17:58:49.864Z,99
2023-05-21T18:00:29.645Z,98
2023-05-21T18:02:09.386Z,98
2023-05-21T18:03:49.179Z,98
2023-05-21T18:05:28.980Z,98
2023-05-21T18:07:08.696Z,98
2023-05-21T18:08:48.451Z,98
2023-05-21T18:10:28.226Z,99
2023-05-21T18:12:07.973Z,100
2023-05-21T18:13:47.862Z,99
2023-05-21T18:15:27.527Z,97
2023-05-21T18:17:07.260Z,100
2023-05-21T18:18:47.025Z,98
2023-05-21T18:20:26.837Z,99
2023-05-21T18:22:06.558Z,100
2023-05-21T18:23:46.336Z,97
2023-05-21T18:25:26.105Z,97
2023-05-21T18:27:05.880Z,98
2023-05-21T18:28:45.624Z,98
2023-05-21T18:30:25.437Z,98
2023-05-21T18:32:05.155Z,98
2023-05-21T18:33:44.920Z,99
2023-05-21T18:35:24.749Z,97
2023-05-21T18:37:04.431Z,88
2023-05-21T18:38:44.214Z,84
2023-05-21T18:40:23.949Z,82
2023-05-21T18:42:03.765Z,80
2023-05-21T18:43:43.505Z,80
2023-05-21T18:45:23.264Z,79
2023-05-21T18:47:03.156Z,78
2023-05-21T18:48:42.928Z,77
2023-05-21T18:50:22.676Z,77
2023-05-21T18:52:02.392Z,76
2023-05-21T18:53:42.137Z,75
2023-05-21T18:55:21.837Z,75
2023-05-21T18:57:01.665Z,74
2023-05-21T18:58:41.498Z,74
2023-05-21T19:00:21.130Z,73
2023-05-21T19:02:00.910Z,73
2023-05-21T19:03:40.865Z,73
2023-05-21T19:05:20.427Z,72
2023-05-21T19:07:00.219Z,72
2023-05-21T19:08:39.967Z,72
2023-05-21T19:10:19.728Z,72
2023-05-21T19:11:59.487Z,72
2023-05-21T19:13:39.247Z,71
2023-05-21T19:15:19.090Z,71
2023-05-21T19:16:58.807Z,71
2023-05-21T19:18:38.555Z,72
2023-05-21T19:20:18.390Z,71
2023-05-21T19:21:58.150Z,71
2023-05-21T19:23:37.846Z,71
2023-05-21T19:25:17.595Z,71
2023-05-21T19:26:57.401Z,71
2023-05-21T19:28:37.163Z,71
2023-05-21T19:30:16.955Z,71
2023-05-21T19:31:56.728Z,71
2023-05-21T19:33:36.409Z,71
2023-05-21T19:35:16.229Z,71
2023-05-21T19:36:55.983Z,71
2023-05-21T19:38:35.724Z,71
2023-05-21T19:40:15.457Z,71
2023-05-21T19:41:55.257Z,71
2023-05-21T19:43:35.057Z,71
2023-05-21T19:45:14.758Z,71
2023-05-21T19:46:54.592Z,71
2023-05-21T19:48:34.306Z,71
2023-05-21T19:50:14.117Z,71
2023-05-21T19:51:53.812Z,71
2023-05-21T19:53:33.586Z,71
2023-05-21T19:55:13.360Z,71
2023-05-21T19:56:53.152Z,71
2023-05-21T19:58:32.902Z,71
2023-05-21T20:00:12.657Z,71
2023-05-21T20:01:52.427Z,71
2023-05-21T20:03:32.173Z,71
2023-05-21T20:05:11.946Z,71
2023-05-21T20:06:51.702Z,70
2023-05-21T20:08:31.471Z,70
2023-05-21T20:10:11.233Z,70
2023-05-21T20:11:51.051Z,70
2023-05-21T20:13:30.770Z,70
2023-05-21T20:15:10.563Z,70
2023-05-21T20:16:50.280Z,70
2023-05-21T20:18:30.049Z,70
2023-05-21T20:20:09.858Z,70
2023-05-21T20:21:49.575Z,70
2023-05-21T20:23:29.339Z,70
2023-05-21T20:25:09.121Z,70
2023-05-21T20:26:48.908Z,70
2023-05-21T20:28:28.635Z,70
2023-05-21T20:30:08.396Z,70
2023-05-21T20:31:48.174Z,70
2023-05-21T20:33:27.932Z,70
2023-05-21T20:35:07.684Z,70
2023-05-21T20:36:47.447Z,70
2023-05-21T20:38:27.211Z,69
2023-05-21T20:40:06.988Z,69
2023-05-21T20:41:46.750Z,69
2023-05-21T20:43:26.514Z,69
2023-05-21T20:45:06.278Z,69
2023-05-21T20:46:46.047Z,69
2023-05-21T20:48:25.813Z,69
2023-05-21T20:50:05.569Z,69
2023-05-21T20:51:45.343Z,69
2023-05-21T20:53:25.089Z,69
2023-05-21T20:55:04.849Z,69
2023-05-21T20:56:44.621Z,69
2023-05-21T20:58:24.394Z,69
2023-05-21T21:00:04.179Z,69
2023-05-21T21:01:43.910Z,69
2023-05-21T21:03:23.677Z,69
2023-05-21T21:05:03.457Z,69
2023-05-21T21:08:22.957Z,69
2023-05-21T21:10:02.714Z,69
2023-05-21T21:11:42.493Z,69
2023-05-21T21:13:22.281Z,69
2023-05-21T21:15:02.034Z,69
2023-05-21T21:16:41.800Z,69
2023-05-21T21:18:21.570Z,69
2023-05-21T21:20:01.348Z,69
2023-05-21T21:21:41.078Z,69
2023-05-21T21:23:20.838Z,69
2023-05-21T21:25:00.618Z,69
2023-05-21T21:26:40.379Z,69
2023-05-21T21:28:20.224Z,68
2023-05-21T21:29:59.899Z,69
2023-05-21T21:31:39.680Z,69
2023-05-21T21:33:19.426Z,68
2023-05-21T21:34:59.204Z,68
2023-05-21T21:36:38.974Z,69
2023-05-21T21:38:18.768Z,69
2023-05-21T21:39:58.514Z,69
2023-05-21T21:41:38.292Z,68
2023-05-21T21:43:18.023Z,68
2023-05-21T21:44:57.809Z,69
2023-05-21T21:46:37.559Z,69
2023-05-21T21:48:17.305Z,69
2023-05-21T21:49:57.077Z,69
2023-05-21T21:51:36.833Z,69
2023-05-21T21:53:16.637Z,69
2023-05-21T21:54:56.378Z,69
2023-05-21T21:56:36.118Z,69
2023-05-21T21:58:15.895Z,69
2023-05-21T21:59:55.662Z,69
2023-05-21T22:01:35.425Z,69
2023-05-21T22:03:15.194Z,69
2023-05-21T22:04:54.952Z,68
2023-05-21T22:06:34.719Z,68
2023-05-21T22:08:14.494Z,68
2023-05-21T22:09:54.232Z,68
2023-05-21T22:11:34.029Z,68
2023-05-21T22:13:13.768Z,68
2023-05-21T22:14:53.551Z,68
2023-05-21T22:16:33.292Z,68
2023-05-21T22:18:13.069Z,68
2023-05-21T22:19:52.831Z,68
2023-05-21T22:21:32.596Z,68
2023-05-21T22:23:12.364Z,68
2023-05-21T22:24:52.123Z,68
2023-05-21T22:26:31.873Z,68
2023-05-21T22:28:11.644Z,68
2023-05-21T22:29:51.413Z,68
2023-05-21T22:31:31.177Z,67
2023-05-21T22:33:10.946Z,68
2023-05-21T22:34:50.710Z,68
2023-05-21T22:36:30.472Z,68
2023-05-21T22:38:10.236Z,68
2023-05-21T22:39:49.991Z,68
2023-05-21T22:41:29.785Z,68
2023-05-21T22:43:09.550Z,68
2023-05-21T22:44:49.303Z,68
2023-05-21T22:46:29.049Z,68
2023-05-21T22:48:08.820Z,68
2023-05-21T22:49:48.581Z,67
2023-05-21T22:51:28.355Z,67
2023-05-21T22:53:08.103Z,67
2023-05-21T22:54:47.873Z,68
2023-05-21T22:56:27.636Z,68
2023-05-21T22:58:07.398Z,67
2023-05-21T22:59:47.168Z,67
2023-05-21T23:01:26.933Z,67
2023-05-21T23:03:06.705Z,67
2023-05-21T23:04:46.468Z,67
2023-05-21T23:06:26.292Z,67
2023-05-21T23:08:06.097Z,67
2023-05-21T23:09:45.746Z,67
2023-05-21T23:11:25.529Z,67
2023-05-21T23:13:05.281Z,67
2023-05-21T23:14:45.034Z,67
2023-05-21T23:16:24.822Z,67
2023-05-21T23:18:04.650Z,67
2023-05-21T23:19:44.380Z,67
2023-05-21T23:21:24.095Z,67
2023-05-21T23:23:03.898Z,67
2023-05-21T23:24:43.680Z,67
2023-05-21T23:26:23.381Z,67
2023-05-21T23:28:03.151Z,67
2023-05-21T23:29:42.907Z,67
2023-05-21T23:31:22.679Z,67